Time;durP1;ratioP1;P1;durP2;ratioP2;P2;SDS_P1;SDS_P2;PMS_P1;PMS_P2;Temp;Humidity;BMP_temperature;BMP_pressure;BME280_temperature;BME280_humidity;BME280_pressure;Samples;Min_cycle;Max_cycle;Signal;HPM_P1;HPM_P2
2023/07/21 00:01:08;;;;;;;;;2.67;2.67;;;;;;;;4991814;28;46086;-78
2023/07/21 00:03:34;;;;;;;;;8.67;5.00;;;;;;;;4991179;28;46138;-76
2023/07/21 00:05:59;;;;;;;;;3.00;2.00;;;;;;;;4983437;28;46004;-76
2023/07/21 00:08:28;;;;;;;;;7.00;3.33;;;;;;;;4968876;28;45527;-79
2023/07/21 00:10:53;;;;;;;;;2.00;2.00;;;;;;;;4982499;28;45871;-76
2023/07/21 00:13:19;;;;;;;;;3.33;3.33;;;;;;;;4985279;28;46839;-76
2023/07/21 00:15:46;;;;;;;;;3.33;2.00;;;;;;;;4972912;28;45517;-75
2023/07/21 00:18:12;;;;;;;;;8.33;5.33;;;;;;;;4989697;28;45605;-79
2023/07/21 00:20:38;;;;;;;;;5.00;5.00;;;;;;;;4991049;28;45416;-77
2023/07/21 00:23:03;;;;;;;;;1.67;1.00;;;;;;;;5002185;28;45773;-78
2023/07/21 00:25:29;;;;;;;;;4.67;3.67;;;;;;;;4991181;28;45796;-78
2023/07/21 00:27:54;;;;;;;;;7.33;4.33;;;;;;;;4972784;28;45656;-75
2023/07/21 00:30:21;;;;;;;;;4.33;4.00;;;;;;;;4972690;28;45907;-76
2023/07/21 00:32:47;;;;;;;;;6.33;6.33;;;;;;;;4972425;28;48163;-76
2023/07/21 00:35:13;;;;;;;;;0.67;0.67;;;;;;;;4988502;28;45635;-75
2023/07/21 00:37:39;;;;;;;;;3.00;3.00;;;;;;;;4972371;28;45539;-79
2023/07/21 00:40:05;;;;;;;;;7.33;5.67;;;;;;;;4973755;28;45939;-78
2023/07/21 00:42:33;;;;;;;;;7.33;5.33;;;;;;;;4971989;28;48447;-77
2023/07/21 00:44:58;;;;;;;;;3.00;3.00;;;;;;;;4987313;28;45458;-77
2023/07/21 00:47:24;;;;;;;;;8.00;6.33;;;;;;;;4982942;28;45534;-76
2023/07/21 00:49:50;;;;;;;;;3.33;3.33;;;;;;;;4977960;28;45856;-78
2023/07/21 00:52:18;;;;;;;;;9.33;5.00;;;;;;;;4971885;28;47070;-78
2023/07/21 00:54:43;;;;;;;;;4.00;4.00;;;;;;;;4990078;28;46033;-79
2023/07/21 00:57:09;;;;;;;;;7.67;4.00;;;;;;;;4973963;28;45504;-78
2023/07/21 00:59:34;;;;;;;;;9.00;5.00;;;;;;;;4991637;28;45622;-75
2023/07/21 01:01:59;;;;;;;;;4.33;2.67;;;;;;;;4971175;28;47162;-75
2023/07/21 01:04:25;;;;;;;;;5.00;5.00;;;;;;;;4991203;28;45485;-75
2023/07/21 01:06:51;;;;;;;;;4.67;4.67;;;;;;;;4971761;28;45446;-75
2023/07/21 01:09:19;;;;;;;;;4.00;2.33;;;;;;;;4973259;28;45741;-74
2023/07/21 01:11:44;;;;;;;;;3.67;3.67;;;;;;;;4989106;28;45937;-76
2023/07/21 01:14:09;;;;;;;;;2.00;2.00;;;;;;;;4989322;28;45376;-75
2023/07/21 01:16:37;;;;;;;;;3.33;3.00;;;;;;;;4989826;28;45544;-76
2023/07/21 01:19:03;;;;;;;;;4.00;1.67;;;;;;;;4991272;28;45597;-75
2023/07/21 01:21:41;;;;;;;;;9.33;7.00;;;;;;;;4973392;28;46196;-78
2023/07/21 01:24:09;;;;;;;;;5.00;4.00;;;;;;;;4991063;28;45479;-77
2023/07/21 01:26:36;;;;;;;;;1.67;1.67;;;;;;;;4995227;28;45399;-78
2023/07/21 01:29:03;;;;;;;;;2.67;2.67;;;;;;;;4991643;28;45721;-78
2023/07/21 01:31:29;;;;;;;;;5.00;3.67;;;;;;;;4973045;28;45602;-77
2023/07/21 01:33:55;;;;;;;;;2.00;2.00;;;;;;;;4972652;28;46039;-78
2023/07/21 01:36:21;;;;;;;;;4.00;3.00;;;;;;;;4992999;28;45500;-76
2023/07/21 01:38:46;;;;;;;;;3.67;3.67;;;;;;;;4973731;28;46141;-78
2023/07/21 01:41:12;;;;;;;;;2.67;2.67;;;;;;;;4974083;28;47913;-78
2023/07/21 01:43:38;;;;;;;;;3.00;3.00;;;;;;;;4972545;28;46575;-79
2023/07/21 01:46:03;;;;;;;;;3.00;3.00;;;;;;;;4977593;28;45773;-76
2023/07/21 01:48:29;;;;;;;;;3.00;3.00;;;;;;;;4976000;28;45364;-76
2023/07/21 01:50:56;;;;;;;;;3.00;3.00;;;;;;;;4993531;28;45469;-76
2023/07/21 01:53:23;;;;;;;;;2.33;2.33;;;;;;;;4976376;28;46036;-76
2023/07/21 01:56:07;;;;;;;;;2.00;2.00;;;;;;;;4991994;28;45494;-76
2023/07/21 01:58:33;;;;;;;;;2.00;2.00;;;;;;;;4993244;28;45745;-76
2023/07/21 02:00:58;;;;;;;;;3.00;2.00;;;;;;;;4994746;28;45807;-74
2023/07/21 02:03:25;;;;;;;;;2.00;2.00;;;;;;;;4993018;28;45813;-75
2023/07/21 02:05:50;;;;;;;;;2.00;2.00;;;;;;;;4993396;28;45482;-76
2023/07/21 02:08:15;;;;;;;;;3.00;2.00;;;;;;;;4975223;28;46035;-76
2023/07/21 02:10:41;;;;;;;;;5.00;2.00;;;;;;;;4980351;28;48249;-76
2023/07/21 02:13:06;;;;;;;;;3.00;3.00;;;;;;;;4991488;28;45513;-76
2023/07/21 02:15:32;;;;;;;;;1.33;0.67;;;;;;;;4993931;28;45668;-78
2023/07/21 02:17:57;;;;;;;;;2.00;2.00;;;;;;;;4974305;28;45812;-79
2023/07/21 02:20:22;;;;;;;;;2.00;2.00;;;;;;;;4974541;28;47591;-77
2023/07/21 02:22:47;;;;;;;;;3.00;3.00;;;;;;;;4965520;28;45539;-78
2023/07/21 02:25:13;;;;;;;;;7.33;6.33;;;;;;;;4969682;28;45742;-79
2023/07/21 02:27:39;;;;;;;;;1.67;1.00;;;;;;;;4980506;28;46212;-77
2023/07/21 02:30:04;;;;;;;;;1.33;1.00;;;;;;;;5001703;28;46047;-78
2023/07/21 02:32:30;;;;;;;;;1.00;1.00;;;;;;;;4974679;28;46245;-77
2023/07/21 02:34:57;;;;;;;;;1.00;1.00;;;;;;;;4994211;28;45455;-77
2023/07/21 02:37:23;;;;;;;;;3.33;2.00;;;;;;;;4992608;28;45462;-79
2023/07/21 02:39:48;;;;;;;;;4.00;3.00;;;;;;;;4992448;28;46368;-79
2023/07/21 02:42:13;;;;;;;;;4.33;4.33;;;;;;;;4964536;28;45765;-75
2023/07/21 02:44:38;;;;;;;;;4.67;4.33;;;;;;;;4992907;28;45499;-75
2023/07/21 02:47:04;;;;;;;;;5.33;2.67;;;;;;;;4979166;28;46665;-76
2023/07/21 02:49:30;;;;;;;;;3.00;1.00;;;;;;;;4991821;28;46975;-76
2023/07/21 02:51:56;;;;;;;;;4.67;4.00;;;;;;;;4992927;28;45514;-76
2023/07/21 02:54:21;;;;;;;;;3.67;2.33;;;;;;;;4991720;28;45529;-76
2023/07/21 02:56:46;;;;;;;;;5.00;4.00;;;;;;;;4992084;28;45666;-77
2023/07/21 02:59:12;;;;;;;;;2.33;2.33;;;;;;;;4973627;28;46495;-75
2023/07/21 03:01:38;;;;;;;;;5.00;3.33;;;;;;;;4992343;28;45523;-75
2023/07/21 03:04:04;;;;;;;;;3.00;3.00;;;;;;;;4974949;28;45698;-75
2023/07/21 03:06:30;;;;;;;;;2.67;2.67;;;;;;;;4974609;28;45830;-76
2023/07/21 03:08:55;;;;;;;;;5.33;4.00;;;;;;;;4993035;28;45823;-79
2023/07/21 03:11:22;;;;;;;;;5.67;4.00;;;;;;;;4979471;28;45483;-81
2023/07/21 03:13:48;;;;;;;;;2.00;2.00;;;;;;;;4993483;28;45881;-81
2023/07/21 03:16:13;;;;;;;;;4.00;4.00;;;;;;;;4993472;28;45563;-78
2023/07/21 03:18:39;;;;;;;;;3.00;3.00;;;;;;;;4973948;28;46059;-78
2023/07/21 03:21:04;;;;;;;;;4.00;3.00;;;;;;;;4991765;28;45679;-79
2023/07/21 03:23:29;;;;;;;;;3.67;3.00;;;;;;;;4990809;28;45835;-77
2023/07/21 03:25:55;;;;;;;;;2.33;2.33;;;;;;;;4990850;28;45808;-77
2023/07/21 03:28:21;;;;;;;;;3.00;2.00;;;;;;;;4965885;28;46977;-77
2023/07/21 03:30:56;;;;;;;;;5.67;5.00;;;;;;;;4991794;28;45391;-77
2023/07/21 03:33:21;;;;;;;;;2.00;2.00;;;;;;;;4993094;28;45479;-76
2023/07/21 03:35:46;;;;;;;;;3.33;2.33;;;;;;;;4994217;28;45715;-77
2023/07/21 03:38:11;;;;;;;;;5.00;2.67;;;;;;;;4991777;28;46451;-78
2023/07/21 03:40:37;;;;;;;;;2.00;2.00;;;;;;;;4991118;28;45836;-78
2023/07/21 03:43:02;;;;;;;;;4.00;3.00;;;;;;;;4992273;28;45692;-78
2023/07/21 03:45:27;;;;;;;;;4.00;4.00;;;;;;;;4992570;28;45804;-78
2023/07/21 03:47:53;;;;;;;;;4.67;3.00;;;;;;;;4991223;28;46052;-76
2023/07/21 03:50:18;;;;;;;;;3.33;3.33;;;;;;;;4973648;28;46085;-77
2023/07/21 03:52:43;;;;;;;;;3.33;2.67;;;;;;;;4973811;28;45743;-77
2023/07/21 03:55:08;;;;;;;;;4.00;4.00;;;;;;;;4999755;28;45976;-77
2023/07/21 03:57:34;;;;;;;;;4.00;4.00;;;;;;;;4992102;28;45617;-79
2023/07/21 03:59:59;;;;;;;;;4.00;4.00;;;;;;;;4972595;28;45769;-79
2023/07/21 04:02:25;;;;;;;;;4.33;4.33;;;;;;;;5000270;28;45470;-78
2023/07/21 04:04:51;;;;;;;;;4.67;3.67;;;;;;;;4994316;28;45719;-77
2023/07/21 04:07:16;;;;;;;;;5.00;4.67;;;;;;;;4994078;28;46425;-78
2023/07/21 04:09:41;;;;;;;;;4.67;4.67;;;;;;;;4997038;28;46001;-78
2023/07/21 04:12:07;;;;;;;;;4.67;4.67;;;;;;;;4997542;28;45546;-77
2023/07/21 04:14:32;;;;;;;;;6.00;4.00;;;;;;;;4960792;28;47153;-78
2023/07/21 04:16:58;;;;;;;;;5.00;5.00;;;;;;;;4997762;28;45934;-77
2023/07/21 04:19:25;;;;;;;;;11.00;5.33;;;;;;;;4979587;28;45817;-77
2023/07/21 04:21:51;;;;;;;;;3.00;3.00;;;;;;;;4993073;28;45473;-77
2023/07/21 04:24:16;;;;;;;;;6.67;5.33;;;;;;;;4983557;28;46230;-78
2023/07/21 04:26:42;;;;;;;;;8.67;4.00;;;;;;;;4993076;28;45523;-77
2023/07/21 04:29:07;;;;;;;;;5.00;5.00;;;;;;;;4999400;28;45603;-77
2023/07/21 04:31:32;;;;;;;;;8.33;6.33;;;;;;;;5001227;28;45732;-78
2023/07/21 04:33:58;;;;;;;;;5.33;5.33;;;;;;;;4992945;28;45692;-78
2023/07/21 04:36:23;;;;;;;;;2.67;2.67;;;;;;;;4992936;28;45999;-79
2023/07/21 04:38:48;;;;;;;;;4.67;3.33;;;;;;;;4972482;28;45985;-78
2023/07/21 04:41:14;;;;;;;;;11.00;7.33;;;;;;;;4992223;28;45835;-77
2023/07/21 04:43:40;;;;;;;;;6.67;5.33;;;;;;;;4976498;28;45744;-77
2023/07/21 04:46:05;;;;;;;;;1.00;1.00;;;;;;;;4991905;28;45780;-80
2023/07/21 04:48:30;;;;;;;;;29.67;28.00;;;;;;;;4998483;28;45734;-82
2023/07/21 04:50:56;;;;;;;;;22.33;19.00;;;;;;;;4981964;28;45972;-80
2023/07/21 04:53:25;;;;;;;;;36.67;29.33;;;;;;;;4997114;28;45514;-80
2023/07/21 04:55:55;;;;;;;;;0.00;0.00;;;;;;;;4963133;28;46782;-79
2023/07/21 04:58:20;;;;;;;;;16.00;16.00;;;;;;;;4972978;28;45978;-79
2023/07/21 05:00:46;;;;;;;;;4.00;4.00;;;;;;;;4992317;28;45816;-80
2023/07/21 05:03:11;;;;;;;;;2.67;2.67;;;;;;;;4999125;28;46021;-79
2023/07/21 05:05:38;;;;;;;;;3.67;3.67;;;;;;;;4976780;28;47210;-80
2023/07/21 05:08:04;;;;;;;;;6.33;4.33;;;;;;;;5000377;28;45378;-79
2023/07/21 05:10:30;;;;;;;;;3.00;2.00;;;;;;;;4994314;28;45804;-79
2023/07/21 05:12:55;;;;;;;;;3.00;3.00;;;;;;;;4976634;28;47207;-79
2023/07/21 05:15:20;;;;;;;;;2.33;2.33;;;;;;;;4989690;28;46482;-80
2023/07/21 05:17:45;;;;;;;;;2.00;2.00;;;;;;;;4991125;28;45888;-81
2023/07/21 05:20:11;;;;;;;;;5.67;4.67;;;;;;;;4989800;28;45347;-79
2023/07/21 05:22:37;;;;;;;;;7.33;7.00;;;;;;;;4993782;28;45435;-80
2023/07/21 05:25:05;;;;;;;;;4.33;4.00;;;;;;;;4977434;28;48204;-80
2023/07/21 05:27:30;;;;;;;;;4.00;3.33;;;;;;;;4967062;28;46161;-79
2023/07/21 05:29:58;;;;;;;;;5.00;5.00;;;;;;;;4965020;28;45848;-80
2023/07/21 05:32:23;;;;;;;;;6.00;3.67;;;;;;;;4974003;28;45950;-79
2023/07/21 05:34:49;;;;;;;;;4.00;4.00;;;;;;;;4993361;28;46409;-79
2023/07/21 05:37:14;;;;;;;;;3.33;3.33;;;;;;;;4991960;28;45819;-80
2023/07/21 05:39:41;;;;;;;;;4.00;3.00;;;;;;;;4989476;28;45714;-80
2023/07/21 05:42:07;;;;;;;;;3.00;2.00;;;;;;;;4991518;28;45612;-81
2023/07/21 05:44:33;;;;;;;;;4.67;3.00;;;;;;;;4991058;28;46317;-81
2023/07/21 05:46:59;;;;;;;;;5.33;3.00;;;;;;;;4994584;28;45889;-80
2023/07/21 05:49:25;;;;;;;;;2.67;2.67;;;;;;;;4991285;28;45412;-81
2023/07/21 05:51:50;;;;;;;;;4.00;4.00;;;;;;;;4980851;28;45711;-81
2023/07/21 05:54:15;;;;;;;;;3.67;3.00;;;;;;;;4977935;28;47304;-82
2023/07/21 05:56:41;;;;;;;;;2.00;2.00;;;;;;;;4981122;28;45777;-80
2023/07/21 05:59:06;;;;;;;;;3.33;3.33;;;;;;;;4974257;28;45728;-80
2023/07/21 06:01:32;;;;;;;;;3.00;3.00;;;;;;;;4992658;28;45545;-80
2023/07/21 06:03:58;;;;;;;;;4.00;2.00;;;;;;;;4991696;28;47365;-80
2023/07/21 06:06:23;;;;;;;;;3.67;2.67;;;;;;;;4990277;28;45861;-78
2023/07/21 06:08:51;;;;;;;;;3.00;3.00;;;;;;;;4989762;28;45448;-78
2023/07/21 06:11:17;;;;;;;;;2.00;2.00;;;;;;;;4974151;28;47169;-79
2023/07/21 06:13:42;;;;;;;;;1.67;1.67;;;;;;;;4993067;28;45883;-79
2023/07/21 06:16:08;;;;;;;;;3.00;3.00;;;;;;;;4991019;28;45771;-79
2023/07/21 06:18:35;;;;;;;;;5.33;4.00;;;;;;;;4991901;28;46226;-79
2023/07/21 06:21:01;;;;;;;;;5.67;5.67;;;;;;;;4982358;28;45952;-78
2023/07/21 06:23:26;;;;;;;;;6.67;4.33;;;;;;;;4990951;28;46557;-80
2023/07/21 06:25:52;;;;;;;;;5.33;4.67;;;;;;;;4969755;28;45844;-76
2023/07/21 06:28:18;;;;;;;;;6.33;4.00;;;;;;;;4970715;28;45628;-74
2023/07/21 06:30:43;;;;;;;;;5.33;4.00;;;;;;;;4977172;28;46774;-74
2023/07/21 06:33:08;;;;;;;;;10.67;8.00;;;;;;;;4987914;28;46593;-74
2023/07/21 06:35:34;;;;;;;;;11.33;7.33;;;;;;;;4972361;28;45968;-75
2023/07/21 06:37:59;;;;;;;;;5.67;4.33;;;;;;;;4964897;28;45873;-74
2023/07/21 06:40:25;;;;;;;;;5.00;4.00;;;;;;;;4988089;28;46147;-75
2023/07/21 06:42:50;;;;;;;;;9.33;6.33;;;;;;;;4990406;28;46747;-75
2023/07/21 06:45:16;;;;;;;;;8.67;6.00;;;;;;;;4981080;28;45951;-77
2023/07/21 06:47:42;;;;;;;;;6.00;6.00;;;;;;;;4973718;28;45775;-74
2023/07/21 06:50:07;;;;;;;;;5.33;5.33;;;;;;;;4988894;28;46087;-75
2023/07/21 06:52:32;;;;;;;;;8.00;5.00;;;;;;;;4971624;28;46906;-75
2023/07/21 06:54:58;;;;;;;;;5.67;5.33;;;;;;;;4972608;28;45877;-76
2023/07/21 06:57:23;;;;;;;;;6.33;5.00;;;;;;;;4975476;28;46236;-74
2023/07/21 06:59:48;;;;;;;;;6.00;5.33;;;;;;;;4990142;28;46143;-75
2023/07/21 07:02:14;;;;;;;;;5.00;5.00;;;;;;;;4980025;28;47656;-78
2023/07/21 07:04:39;;;;;;;;;6.00;5.00;;;;;;;;4971274;28;45396;-75
2023/07/21 07:07:05;;;;;;;;;5.67;5.67;;;;;;;;4985324;28;45684;-76
2023/07/21 07:09:30;;;;;;;;;6.67;6.67;;;;;;;;4989476;28;45757;-76
2023/07/21 07:11:56;;;;;;;;;9.67;6.33;;;;;;;;4974846;28;48041;-74
2023/07/21 07:14:21;;;;;;;;;6.33;6.33;;;;;;;;4967375;28;46007;-76
2023/07/21 07:16:47;;;;;;;;;8.00;5.67;;;;;;;;4985001;28;45622;-75
2023/07/21 07:19:12;;;;;;;;;11.00;7.67;;;;;;;;4968575;28;47331;-73
2023/07/21 07:21:37;;;;;;;;;7.67;7.67;;;;;;;;4986783;28;46643;-76
2023/07/21 07:24:02;;;;;;;;;5.33;5.00;;;;;;;;4988153;28;45932;-76
2023/07/21 07:26:28;;;;;;;;;7.00;6.00;;;;;;;;4970050;28;45844;-75
2023/07/21 07:28:53;;;;;;;;;7.67;7.00;;;;;;;;4994538;28;45742;-77
2023/07/21 07:31:18;;;;;;;;;8.67;7.00;;;;;;;;5000208;28;45815;-77
2023/07/21 07:33:45;;;;;;;;;10.50;5.75;;;;;;;;4995839;28;45499;-78
2023/07/21 07:36:11;;;;;;;;;8.33;7.00;;;;;;;;4996162;28;46071;-79
2023/07/21 07:38:38;;;;;;;;;7.00;5.25;;;;;;;;4995928;28;45820;-78
2023/07/21 07:41:05;;;;;;;;;6.33;5.33;;;;;;;;4970716;28;47230;-78
2023/07/21 07:43:32;;;;;;;;;7.33;7.00;;;;;;;;4973218;28;45996;-77
2023/07/21 07:45:58;;;;;;;;;11.00;8.00;;;;;;;;4975249;28;45630;-76
2023/07/21 07:48:23;;;;;;;;;7.25;6.00;;;;;;;;4995790;28;45508;-76
2023/07/21 07:50:51;;;;;;;;;6.25;5.50;;;;;;;;4976716;28;47064;-76
2023/07/21 07:53:16;;;;;;;;;8.00;5.33;;;;;;;;4995685;28;45537;-74
2023/07/21 07:55:42;;;;;;;;;11.25;8.00;;;;;;;;4973947;28;45684;-75
2023/07/21 07:58:11;;;;;;;;;15.33;11.67;;;;;;;;4978894;28;47123;-76
2023/07/21 08:00:38;;;;;;;;;10.00;9.00;;;;;;;;4992762;28;46393;-74
2023/07/21 08:03:07;;;;;;;;;7.25;6.75;;;;;;;;4994287;28;45921;-75
2023/07/21 08:05:32;;;;;;;;;12.25;10.50;;;;;;;;5004028;28;45869;-75
2023/07/21 08:08:00;;;;;;;;;13.33;11.67;;;;;;;;4984972;28;46056;-75
2023/07/21 08:10:27;;;;;;;;;14.75;11.75;;;;;;;;4993755;28;45521;-81
2023/07/21 08:12:53;;;;;;;;;9.50;8.25;;;;;;;;4976220;28;45955;-79
2023/07/21 08:15:18;;;;;;;;;13.50;11.00;;;;;;;;4994270;28;45633;-80
2023/07/21 08:17:43;;;;;;;;;10.25;8.00;;;;;;;;4998630;28;46828;-80
2023/07/21 08:20:09;;;;;;;;;11.00;9.00;;;;;;;;4974092;28;46873;-79
2023/07/21 08:22:34;;;;;;;;;7.00;7.00;;;;;;;;4997228;28;46800;-79
2023/07/21 08:25:00;;;;;;;;;10.00;10.00;;;;;;;;4983955;28;45779;-80
2023/07/21 08:27:26;;;;;;;;;10.33;9.00;;;;;;;;4959861;28;45852;-79
2023/07/21 08:30:09;;;;;;;;;9.50;7.00;;;;;;;;4959087;28;46321;-79
2023/07/21 08:32:35;;;;;;;;;9.00;9.00;;;;;;;;4975805;28;46308;-78
2023/07/21 08:35:02;;;;;;;;;8.50;8.00;;;;;;;;4973605;28;46054;-81
2023/07/21 08:37:29;;;;;;;;;8.25;5.75;;;;;;;;4958749;28;45688;-83
2023/07/21 08:39:55;;;;;;;;;7.25;7.25;;;;;;;;4960672;28;45515;-81
2023/07/21 08:42:25;;;;;;;;;7.75;6.75;;;;;;;;4975324;28;45735;-81
2023/07/21 08:44:51;;;;;;;;;9.50;7.00;;;;;;;;4954602;28;45644;-79
2023/07/21 08:47:17;;;;;;;;;7.00;7.00;;;;;;;;4956217;28;45997;-79
2023/07/21 08:49:42;;;;;;;;;7.00;7.00;;;;;;;;4959199;28;48413;-80
2023/07/21 08:52:08;;;;;;;;;7.50;6.50;;;;;;;;4977002;28;45655;-81
2023/07/21 08:54:34;;;;;;;;;7.00;7.00;;;;;;;;4956655;28;45782;-80
2023/07/21 08:57:06;;;;;;;;;6.67;6.67;;;;;;;;4974908;28;46017;-80
2023/07/21 09:00:00;;;;;;;;;5.00;5.00;;;;;;;;4962022;28;45789;-81
2023/07/21 09:02:40;;;;;;;;;8.00;8.00;;;;;;;;4968658;28;45882;-80
2023/07/21 09:05:06;;;;;;;;;6.00;5.00;;;;;;;;4983016;28;45762;-80
2023/07/21 09:07:41;;;;;;;;;6.00;4.33;;;;;;;;4962939;28;47106;-79
2023/07/21 09:10:07;;;;;;;;;6.00;6.00;;;;;;;;4962715;28;46701;-78
2023/07/21 09:12:36;;;;;;;;;7.00;6.00;;;;;;;;4964183;28;45531;-78
2023/07/21 09:15:09;;;;;;;;;6.67;5.67;;;;;;;;4986074;28;45800;-80
2023/07/21 09:17:44;;;;;;;;;4.00;4.00;;;;;;;;4982170;28;45970;-80
2023/07/21 09:20:20;;;;;;;;;4.00;4.00;;;;;;;;4966671;28;47912;-79
2023/07/21 09:22:50;;;;;;;;;5.00;5.00;;;;;;;;4989484;28;45608;-84
2023/07/21 09:25:20;;;;;;;;;4.00;4.00;;;;;;;;4963889;28;45933;-79
2023/07/21 09:27:55;;;;;;;;;5.67;4.00;;;;;;;;4970417;28;45940;-79
2023/07/21 09:30:25;;;;;;;;;10.00;10.00;;;;;;;;4970855;28;46084;-81
2023/07/21 09:32:55;;;;;;;;;10.33;10.33;;;;;;;;4972505;28;45855;-79
2023/07/21 09:35:40;;;;;;;;;7.67;5.67;;;;;;;;4977319;28;45971;-80
2023/07/21 09:38:11;;;;;;;;;9.67;9.67;;;;;;;;4970637;28;45800;-80
2023/07/21 09:40:41;;;;;;;;;7.67;7.67;;;;;;;;4989286;28;46959;-78
2023/07/21 09:43:10;;;;;;;;;24.00;21.67;;;;;;;;4984947;28;45724;-77
2023/07/21 09:45:36;;;;;;;;;15.00;12.67;;;;;;;;4971453;28;45788;-76
2023/07/21 09:48:05;;;;;;;;;15.00;15.00;;;;;;;;4989515;28;46130;-78
2023/07/21 09:50:31;;;;;;;;;7.00;6.33;;;;;;;;4981073;28;46752;-80
2023/07/21 09:53:05;;;;;;;;;4.00;4.00;;;;;;;;4975412;28;45756;-80
2023/07/21 09:55:34;;;;;;;;;4.00;4.00;;;;;;;;4964689;28;45837;-78
2023/07/21 09:58:09;;;;;;;;;4.00;4.00;;;;;;;;4971581;28;46172;-78
2023/07/21 10:00:36;;;;;;;;;3.67;3.67;;;;;;;;4969360;28;46240;-79
2023/07/21 10:03:03;;;;;;;;;1.67;1.67;;;;;;;;4986195;28;45996;-81
2023/07/21 10:05:34;;;;;;;;;5.25;3.50;;;;;;;;4969845;28;45520;-79
2023/07/21 10:08:02;;;;;;;;;3.75;3.75;;;;;;;;4976553;28;47101;-79
2023/07/21 10:10:33;;;;;;;;;4.75;3.00;;;;;;;;4973686;28;47836;-79
2023/07/21 10:13:04;;;;;;;;;4.00;3.00;;;;;;;;4989356;28;45897;-86
2023/07/21 10:15:36;;;;;;;;;2.67;2.67;;;;;;;;4984795;28;45661;-79
2023/07/21 10:18:08;;;;;;;;;4.75;2.25;;;;;;;;4978174;28;45726;-81
2023/07/21 10:26:48;;;;;;;;;3.00;3.00;;;;;;;;4933235;28;46481;-78
2023/07/21 10:29:23;;;;;;;;;5.33;4.00;;;;;;;;4994033;28;45761;-81
2023/07/21 10:31:53;;;;;;;;;4.75;4.75;;;;;;;;4991648;28;46482;-79
2023/07/21 10:34:30;;;;;;;;;4.00;4.00;;;;;;;;4975965;28;45790;-80
2023/07/21 10:37:01;;;;;;;;;4.25;3.00;;;;;;;;4979192;28;45456;-81
2023/07/21 10:39:40;;;;;;;;;4.50;3.50;;;;;;;;4976399;28;45985;-79
2023/07/21 10:42:13;;;;;;;;;2.75;2.75;;;;;;;;4991018;28;45886;-78
2023/07/21 10:44:44;;;;;;;;;5.00;2.50;;;;;;;;4973514;28;46053;-82
2023/07/21 10:47:47;;;;;;;;;5.00;5.00;;;;;;;;4982096;28;45965;-79
2023/07/21 10:50:13;;;;;;;;;10.00;8.33;;;;;;;;4891339;28;45867;-79
2023/07/21 10:52:38;;;;;;;;;3.00;3.00;;;;;;;;4966513;28;47267;-76
2023/07/21 10:55:07;;;;;;;;;10.67;10.67;;;;;;;;4986881;28;45654;-76
2023/07/21 10:57:33;;;;;;;;;3.50;3.50;;;;;;;;4965126;28;45970;-76
2023/07/21 10:59:58;;;;;;;;;4.75;4.75;;;;;;;;4988432;28;45670;-77
2023/07/21 11:02:24;;;;;;;;;3.75;3.75;;;;;;;;4982396;28;46259;-77
2023/07/21 11:04:50;;;;;;;;;2.50;2.50;;;;;;;;4989360;28;45819;-76
2023/07/21 11:07:15;;;;;;;;;5.00;4.00;;;;;;;;4988958;28;45547;-76
2023/07/21 11:09:47;;;;;;;;;4.00;4.00;;;;;;;;4989240;28;45847;-78
2023/07/21 11:12:12;;;;;;;;;3.00;3.00;;;;;;;;4990865;28;46845;-76
2023/07/21 11:14:38;;;;;;;;;2.00;2.00;;;;;;;;4989000;28;45845;-74
2023/07/21 11:17:03;;;;;;;;;2.50;2.50;;;;;;;;4971263;28;45748;-77
2023/07/21 11:19:30;;;;;;;;;3.00;3.00;;;;;;;;4970222;28;47027;-75
2023/07/21 11:21:55;;;;;;;;;5.00;2.75;;;;;;;;4988687;28;45875;-75
2023/07/21 11:24:25;;;;;;;;;3.00;3.00;;;;;;;;4969616;28;45504;-81
2023/07/21 11:26:55;;;;;;;;;3.00;3.00;;;;;;;;4998053;28;45494;-81
2023/07/21 11:29:20;;;;;;;;;3.50;3.50;;;;;;;;4974275;28;45884;-82
2023/07/21 11:31:46;;;;;;;;;10.33;9.00;;;;;;;;4965978;28;47004;-80
2023/07/21 11:34:18;;;;;;;;;3.50;3.50;;;;;;;;4998744;28;45363;-75
2023/07/21 11:36:44;;;;;;;;;3.25;3.25;;;;;;;;4989623;28;45517;-76
2023/07/21 11:39:11;;;;;;;;;3.00;3.00;;;;;;;;4989632;28;45893;-75
2023/07/21 11:41:44;;;;;;;;;5.00;3.25;;;;;;;;4972723;28;46461;-74
2023/07/21 11:44:16;;;;;;;;;3.00;3.00;;;;;;;;4991453;28;45971;-75
2023/07/21 11:46:41;;;;;;;;;4.25;4.25;;;;;;;;4972518;28;45460;-75
2023/07/21 11:49:13;;;;;;;;;2.75;2.75;;;;;;;;4990488;28;45715;-77
2023/07/21 11:51:42;;;;;;;;;3.00;2.00;;;;;;;;4979169;28;46811;-77
2023/07/21 11:54:17;;;;;;;;;2.25;2.25;;;;;;;;4971842;28;46422;-78
2023/07/21 11:56:45;;;;;;;;;3.50;3.50;;;;;;;;4986924;28;45792;-78
2023/07/21 11:59:13;;;;;;;;;3.50;3.50;;;;;;;;4980886;28;45988;-79
2023/07/21 12:01:39;;;;;;;;;3.00;3.00;;;;;;;;4970383;28;46120;-76
2023/07/21 12:04:08;;;;;;;;;3.00;2.00;;;;;;;;4988631;28;46514;-80
2023/07/21 12:06:37;;;;;;;;;7.00;7.00;;;;;;;;4979822;28;45540;-83
2023/07/21 12:09:09;;;;;;;;;4.00;4.00;;;;;;;;4988397;28;45594;-81
2023/07/21 12:11:34;;;;;;;;;3.00;3.00;;;;;;;;4989087;28;46293;-78
2023/07/21 12:14:00;;;;;;;;;3.75;3.75;;;;;;;;4973150;28;45782;-80
2023/07/21 12:16:26;;;;;;;;;2.75;2.75;;;;;;;;4990532;28;45625;-75
2023/07/21 12:18:51;;;;;;;;;6.25;4.50;;;;;;;;4989023;28;45517;-76
2023/07/21 12:21:20;;;;;;;;;5.00;3.00;;;;;;;;4987633;28;45459;-81
2023/07/21 12:23:45;;;;;;;;;7.25;3.75;;;;;;;;4987812;28;45861;-75
2023/07/21 12:26:10;;;;;;;;;5.50;4.50;;;;;;;;4970833;28;45835;-79
2023/07/21 12:28:36;;;;;;;;;4.00;3.00;;;;;;;;4988026;28;45761;-81
2023/07/21 12:31:02;;;;;;;;;3.00;3.00;;;;;;;;4987515;28;45554;-77
2023/07/21 12:33:27;;;;;;;;;4.00;4.00;;;;;;;;4969613;28;45959;-75
2023/07/21 12:35:53;;;;;;;;;4.00;4.00;;;;;;;;4970984;28;45816;-82
2023/07/21 12:38:18;;;;;;;;;4.33;3.67;;;;;;;;4969829;28;46102;-80
2023/07/21 12:40:44;;;;;;;;;7.00;4.00;;;;;;;;4989589;28;45925;-80
2023/07/21 12:43:10;;;;;;;;;4.00;2.75;;;;;;;;4971402;28;45255;-81
2023/07/21 12:45:35;;;;;;;;;3.00;3.00;;;;;;;;4988487;28;45718;-81
2023/07/21 12:48:01;;;;;;;;;3.00;2.25;;;;;;;;4985690;28;45696;-83
2023/07/21 12:50:26;;;;;;;;;4.50;3.50;;;;;;;;4971269;28;47469;-81
2023/07/21 12:52:51;;;;;;;;;4.50;3.50;;;;;;;;4992363;28;44817;-80
2023/07/21 12:55:17;;;;;;;;;2.25;2.25;;;;;;;;4975184;28;45475;-81
2023/07/21 12:57:42;;;;;;;;;4.25;4.00;;;;;;;;4988075;28;45576;-82
2023/07/21 13:00:11;;;;;;;;;6.00;6.00;;;;;;;;4989165;28;45463;-81
2023/07/21 13:02:36;;;;;;;;;6.50;5.25;;;;;;;;4977834;28;45927;-77
2023/07/21 13:05:01;;;;;;;;;5.00;5.00;;;;;;;;4988588;28;45678;-82
2023/07/21 13:07:27;;;;;;;;;4.25;3.50;;;;;;;;4974507;28;47696;-75
2023/07/21 13:09:52;;;;;;;;;5.00;5.00;;;;;;;;4990163;28;46838;-81
2023/07/21 13:12:17;;;;;;;;;6.00;4.75;;;;;;;;4966434;28;45626;-79
2023/07/21 13:14:42;;;;;;;;;3.75;3.00;;;;;;;;4971908;28;45499;-77
2023/07/21 13:17:10;;;;;;;;;5.33;5.00;;;;;;;;4971219;28;46162;-76
2023/07/21 13:19:36;;;;;;;;;3.00;3.00;;;;;;;;4971046;28;46704;-80
2023/07/21 13:22:01;;;;;;;;;4.75;3.00;;;;;;;;4987592;28;45938;-78
2023/07/21 13:24:27;;;;;;;;;4.50;4.00;;;;;;;;4971789;28;45444;-81
2023/07/21 13:26:53;;;;;;;;;4.00;3.00;;;;;;;;4998761;28;45691;-82
2023/07/21 13:29:22;;;;;;;;;5.00;4.25;;;;;;;;4985678;28;47123;-83
2023/07/21 13:31:47;;;;;;;;;2.75;1.75;;;;;;;;4993318;28;45294;-83
2023/07/21 13:34:13;;;;;;;;;4.00;4.00;;;;;;;;4989624;28;45559;-82
2023/07/21 13:36:38;;;;;;;;;4.75;4.75;;;;;;;;4970256;28;45914;-83
2023/07/21 13:39:03;;;;;;;;;6.00;4.50;;;;;;;;4994602;28;45701;-82
2023/07/21 13:41:29;;;;;;;;;5.00;5.00;;;;;;;;4986269;28;45470;-75
2023/07/21 13:43:55;;;;;;;;;3.50;2.00;;;;;;;;4971267;28;45694;-77
2023/07/21 13:46:34;;;;;;;;;4.00;4.00;;;;;;;;4970979;28;46699;-77
2023/07/21 13:49:01;;;;;;;;;2.00;2.00;;;;;;;;4988923;28;46212;-79
2023/07/21 13:51:26;;;;;;;;;5.00;5.00;;;;;;;;4968036;28;46012;-79
2023/07/21 13:53:52;;;;;;;;;3.75;3.00;;;;;;;;4970840;28;45813;-85
2023/07/21 13:56:18;;;;;;;;;4.00;3.00;;;;;;;;4973064;28;46053;-82
2023/07/21 13:58:43;;;;;;;;;5.00;5.00;;;;;;;;4989033;28;45796;-80
2023/07/21 14:01:12;;;;;;;;;7.50;5.75;;;;;;;;4988549;28;46053;-81
2023/07/21 14:03:42;;;;;;;;;3.25;3.00;;;;;;;;4986410;28;45472;-82
2023/07/21 14:06:10;;;;;;;;;5.00;5.00;;;;;;;;4990604;28;45817;-81
2023/07/21 14:08:54;;;;;;;;;4.00;4.00;;;;;;;;4989598;28;45729;-78
2023/07/21 14:12:12;;;;;;;;;4.25;4.25;;;;;;;;4978574;28;45515;-77
2023/07/21 14:14:44;;;;;;;;;4.50;4.00;;;;;;;;4975474;28;45801;-81
2023/07/21 14:23:54;;;;;;;;;6.25;4.00;;;;;;;;4970873;28;45898;-80
2023/07/21 14:26:34;;;;;;;;;3.33;3.33;;;;;;;;4970013;28;45911;-81
2023/07/21 14:32:47;;;;;;;;;4.50;4.50;;;;;;;;4948540;28;46203;-78
2023/07/21 14:39:05;;;;;;;;;3.25;3.25;;;;;;;;4911223;28;45704;-80
2023/07/21 14:41:40;;;;;;;;;3.25;3.25;;;;;;;;4896377;28;45931;-79
2023/07/21 14:57:17;;;;;;;;;;;;;;;;;;;;;
2023/07/21 15:00:20;;;;;;;;;4.00;4.00;;;;;;;;4798814;29;71278;-79
2023/07/21 15:02:48;;;;;;;;;5.75;4.50;;;;;;;;4885865;28;45572;-81
2023/07/21 15:05:14;;;;;;;;;5.67;5.67;;;;;;;;4975481;28;45854;-77
2023/07/21 15:07:40;;;;;;;;;5.00;4.00;;;;;;;;4994964;28;45722;-75
2023/07/21 15:10:05;;;;;;;;;5.33;4.00;;;;;;;;4968468;28;45858;-75
2023/07/21 15:12:30;;;;;;;;;4.33;3.00;;;;;;;;4971358;28;45749;-74
2023/07/21 15:14:56;;;;;;;;;7.00;5.00;;;;;;;;4984803;28;45959;-77
2023/07/21 15:17:22;;;;;;;;;6.00;5.00;;;;;;;;4991607;28;45823;-77